createdAt,value
2023-03-29T00:01:58.206Z,95194.00
2023-03-29T00:04:24.577Z,95208.97
2023-03-29T00:06:50.911Z,95213.88
2023-03-29T00:09:17.217Z,95215.09
2023-03-29T00:11:43.534Z,95201.97
2023-03-29T00:14:09.861Z,95225.47
2023-03-29T00:16:36.205Z,95185.16
2023-03-29T00:19:02.525Z,95165.09
2023-03-29T00:21:28.834Z,95170.66
2023-03-29T00:23:55.138Z,95164.19
2023-03-29T00:26:21.457Z,95138.25
2023-03-29T00:28:47.786Z,95131.53
2023-03-29T00:31:14.167Z,95132.75
2023-03-29T00:33:40.506Z,95119.19
2023-03-29T00:36:07.039Z,95124.59
2023-03-29T00:38:33.463Z,95121.84
2023-03-29T00:40:59.942Z,95118.38
2023-03-29T00:43:26.382Z,95127.75
2023-03-29T00:45:52.690Z,95141.38
2023-03-29T00:48:19.038Z,95149.94
2023-03-29T00:50:45.397Z,95173.56
2023-03-29T00:53:11.736Z,95187.69
2023-03-29T00:55:38.054Z,95191.63
2023-03-29T00:58:04.383Z,95183.72
2023-03-29T01:00:30.734Z,95186.41
2023-03-29T01:02:57.184Z,95175.50
2023-03-29T01:05:23.578Z,95164.41
2023-03-29T01:07:49.903Z,95155.19
2023-03-29T01:10:16.246Z,95136.00
2023-03-29T01:12:42.591Z,95129.16
2023-03-29T01:15:08.917Z,95124.78
2023-03-29T01:17:35.282Z,95129.56
2023-03-29T01:20:01.647Z,95144.19
2023-03-29T01:22:27.978Z,95155.66
2023-03-29T01:24:54.299Z,95163.91
2023-03-29T01:27:20.607Z,95173.09
2023-03-29T01:29:46.917Z,95142.53
2023-03-29T01:32:13.228Z,95134.63
2023-03-29T01:34:39.548Z,95116.09
2023-03-29T01:37:05.865Z,95112.44
2023-03-29T01:39:32.174Z,95121.69
2023-03-29T01:41:58.478Z,95134.84
2023-03-29T01:44:24.788Z,95132.22
2023-03-29T01:46:52.213Z,95150.63
2023-03-29T01:49:18.608Z,95166.41
2023-03-29T01:51:44.943Z,95167.03
2023-03-29T01:54:11.269Z,95159.97
2023-03-29T01:56:37.613Z,95159.44
2023-03-29T01:59:03.990Z,95151.44
2023-03-29T02:01:30.353Z,95136.41
2023-03-29T02:03:56.683Z,95137.53
2023-03-29T02:06:22.986Z,95122.56
2023-03-29T02:08:49.294Z,95118.81
2023-03-29T02:11:15.645Z,95114.03
2023-03-29T02:13:41.971Z,95142.00
2023-03-29T02:16:08.316Z,95149.88
2023-03-29T02:18:34.671Z,95158.47
2023-03-29T02:21:01.131Z,95155.97
2023-03-29T02:23:27.617Z,95159.44
2023-03-29T02:25:53.972Z,95163.31
2023-03-29T02:28:20.289Z,95169.50
2023-03-29T02:30:46.739Z,95150.78
2023-03-29T02:33:13.086Z,95144.84
2023-03-29T02:35:39.423Z,95136.97
2023-03-29T02:38:05.768Z,95122.56
2023-03-29T02:40:32.117Z,95136.00
2023-03-29T02:42:58.438Z,95139.97
2023-03-29T02:45:24.761Z,95138.19
2023-03-29T02:47:51.105Z,95142.50
2023-03-29T02:50:17.438Z,95141.34
2023-03-29T02:52:43.787Z,95123.28
2023-03-29T02:55:10.107Z,95112.31
2023-03-29T02:57:36.448Z,95131.53
2023-03-29T03:00:02.768Z,95117.13
2023-03-29T03:02:29.119Z,95095.28
2023-03-29T03:04:55.459Z,95105.31
2023-03-29T03:07:21.791Z,95099.59
2023-03-29T03:09:48.112Z,95106.47
2023-03-29T03:12:14.441Z,95123.75
2023-03-29T03:14:40.756Z,95121.63
2023-03-29T03:17:07.088Z,95114.53
2023-03-29T03:19:33.422Z,95125.03
2023-03-29T03:21:59.774Z,95119.97
2023-03-29T03:24:26.073Z,95112.41
2023-03-29T03:26:52.381Z,95113.91
2023-03-29T03:29:18.719Z,95101.06
2023-03-29T03:31:45.096Z,95093.19
2023-03-29T03:34:11.724Z,95087.09
2023-03-29T03:36:38.080Z,95082.84
2023-03-29T03:39:04.409Z,95086.13
2023-03-29T03:41:30.740Z,95075.13
2023-03-29T03:43:57.050Z,95069.38
2023-03-29T03:46:23.448Z,95079.03
2023-03-29T03:48:49.843Z,95084.81
2023-03-29T03:51:16.188Z,95082.00
2023-03-29T03:53:42.501Z,95087.09
2023-03-29T03:56:08.888Z,95087.63
2023-03-29T03:58:35.276Z,95078.09
2023-03-29T04:01:01.794Z,95076.09
2023-03-29T04:03:28.349Z,95069.38
2023-03-29T04:05:54.736Z,95068.50
2023-03-29T04:08:21.038Z,95063.59
2023-03-29T04:10:47.367Z,95068.19
2023-03-29T04:13:13.937Z,95075.56
2023-03-29T04:15:40.301Z,95075.44
2023-03-29T04:18:06.715Z,95068.84
2023-03-29T04:20:33.105Z,95070.31
2023-03-29T04:22:59.519Z,95064.09
2023-03-29T04:25:25.848Z,95065.72
2023-03-29T04:27:52.161Z,95060.31
2023-03-29T04:30:18.516Z,95064.09
2023-03-29T04:32:44.924Z,95073.94
2023-03-29T04:35:11.249Z,95075.09
2023-03-29T04:37:37.565Z,95082.81
2023-03-29T04:40:03.904Z,95076.25
2023-03-29T04:42:30.227Z,95085.94
2023-03-29T04:44:56.549Z,95073.63
2023-03-29T04:47:22.897Z,95078.38
2023-03-29T04:49:49.238Z,95069.31
2023-03-29T04:52:15.562Z,95071.44
2023-03-29T04:54:41.876Z,95079.00
2023-03-29T04:57:08.295Z,95076.72
2023-03-29T04:59:34.649Z,95076.53
2023-03-29T05:02:01.001Z,95079.00
2023-03-29T05:04:27.385Z,95076.69
2023-03-29T05:06:53.708Z,95073.72
2023-03-29T05:09:20.031Z,95079.84
2023-03-29T05:11:46.337Z,95079.84
2023-03-29T05:14:12.661Z,95083.13
2023-03-29T05:16:39.097Z,95080.50
2023-03-29T05:19:05.506Z,95091.50
2023-03-29T05:21:31.825Z,95091.31
2023-03-29T05:23:58.168Z,95089.38
2023-03-29T05:26:24.482Z,95096.13
2023-03-29T05:28:50.803Z,95094.31
2023-03-29T05:31:17.351Z,95091.66
2023-03-29T05:33:43.707Z,95098.41
2023-03-29T05:36:10.048Z,95106.28
2023-03-29T05:38:36.405Z,95101.03
2023-03-29T05:41:02.839Z,95087.88
2023-03-29T05:43:29.314Z,95086.41
2023-03-29T05:45:55.744Z,95091.50
2023-03-29T05:48:22.084Z,95087.22
2023-03-29T05:50:48.412Z,95084.09
2023-03-29T05:53:14.722Z,95079.84
2023-03-29T05:55:41.022Z,95081.63
2023-03-29T05:58:07.345Z,95074.06
2023-03-29T06:00:33.678Z,95076.03
2023-03-29T06:03:13.311Z,95088.03
2023-03-29T06:05:44.175Z,95081.28
2023-03-29T06:08:10.483Z,95082.28
2023-03-29T06:10:36.809Z,95089.84
2023-03-29T06:13:03.161Z,95102.00
2023-03-29T06:15:29.467Z,95099.53
2023-03-29T06:17:55.793Z,95100.69
2023-03-29T06:20:22.167Z,95108.22
2023-03-29T06:22:48.490Z,95106.94
2023-03-29T06:25:14.806Z,95101.19
2023-03-29T06:27:41.145Z,95110.56
2023-03-29T06:30:07.484Z,95100.84
2023-03-29T06:32:33.865Z,95099.53
2023-03-29T06:35:00.220Z,95105.41
2023-03-29T06:37:26.550Z,95105.59
2023-03-29T06:39:53.370Z,95106.75
2023-03-29T06:42:21.559Z,95099.97
2023-03-29T06:44:48.265Z,95107.91
2023-03-29T06:47:14.586Z,95112.50
2023-03-29T06:49:40.924Z,95113.50
2023-03-29T06:52:07.262Z,95111.38
2023-03-29T06:54:33.581Z,95123.22
2023-03-29T06:56:59.964Z,95119.41
2023-03-29T06:59:26.356Z,95126.66
2023-03-29T07:01:52.722Z,95122.19
2023-03-29T07:04:19.096Z,95121.72
2023-03-29T07:06:45.526Z,95118.53
2023-03-29T07:09:11.855Z,95121.94
2023-03-29T07:11:38.178Z,95129.69
2023-03-29T07:14:04.488Z,95130.81
2023-03-29T07:16:30.838Z,95139.31
2023-03-29T07:18:57.176Z,95131.41
2023-03-29T07:21:23.509Z,95129.44
2023-03-29T07:23:49.813Z,95137.50
2023-03-29T07:26:16.115Z,95133.03
2023-03-29T07:28:55.165Z,95135.63
2023-03-29T07:31:21.470Z,95133.81
2023-03-29T07:33:47.863Z,95128.38
2023-03-29T07:36:14.284Z,95137.44
2023-03-29T07:38:40.626Z,95138.22
2023-03-29T07:41:06.988Z,95139.88
2023-03-29T07:43:33.419Z,95139.50
2023-03-29T07:45:59.760Z,95146.09
2023-03-29T07:48:26.098Z,95163.47
2023-03-29T07:50:52.405Z,95145.19
2023-03-29T07:53:18.734Z,95143.88
2023-03-29T07:55:47.007Z,95141.69
2023-03-29T07:58:13.808Z,95155.38
2023-03-29T08:00:40.188Z,95159.59
2023-03-29T08:03:06.618Z,95164.31
2023-03-29T08:05:40.640Z,95165.00
2023-03-29T08:08:08.180Z,95159.53
2023-03-29T08:10:34.537Z,95159.66
2023-03-29T08:13:00.884Z,95161.75
2023-03-29T08:15:27.237Z,95174.06
2023-03-29T08:17:53.644Z,95175.50
2023-03-29T08:20:20.042Z,95174.31
2023-03-29T08:22:46.363Z,95163.13
2023-03-29T08:25:13.866Z,95164.41
2023-03-29T08:27:40.215Z,95154.97
2023-03-29T08:30:06.571Z,95165.16
2023-03-29T08:32:32.944Z,95150.13
2023-03-29T08:34:59.265Z,95156.16
2023-03-29T08:37:25.589Z,95149.34
2023-03-29T08:39:51.927Z,95150.09
2023-03-29T08:42:18.233Z,95140.91
2023-03-29T08:44:44.631Z,95152.09
2023-03-29T08:47:10.934Z,95146.81
2023-03-29T08:49:37.261Z,95151.09
2023-03-29T08:52:03.601Z,95162.47
2023-03-29T08:54:29.922Z,95156.53
2023-03-29T08:56:56.285Z,95159.16
2023-03-29T08:59:22.610Z,95159.78
2023-03-29T09:01:48.969Z,95163.00
2023-03-29T09:04:17.292Z,95156.81
2023-03-29T09:06:43.619Z,95151.81
2023-03-29T09:09:09.943Z,95148.19
2023-03-29T09:11:36.278Z,95151.16
2023-03-29T09:14:02.595Z,95153.66
2023-03-29T09:16:28.960Z,95145.44
2023-03-29T09:18:55.309Z,95142.06
2023-03-29T09:21:21.621Z,95147.06
2023-03-29T09:23:47.955Z,95146.03
2023-03-29T09:26:14.297Z,95145.84
2023-03-29T09:28:40.621Z,95143.53
2023-03-29T09:31:06.993Z,95135.78
2023-03-29T09:33:33.327Z,95143.94
2023-03-29T09:35:59.704Z,95145.13
2023-03-29T09:38:26.021Z,95132.34
2023-03-29T09:40:52.345Z,95142.81
2023-03-29T09:43:18.660Z,95139.38
2023-03-29T09:45:45.018Z,95135.09
2023-03-29T09:48:11.538Z,95140.56
2023-03-29T09:50:37.954Z,95149.28
2023-03-29T09:53:04.271Z,95139.50
2023-03-29T09:55:30.610Z,95134.56
2023-03-29T09:57:57.108Z,95143.97
2023-03-29T10:00:23.441Z,95151.44
2023-03-29T10:02:49.816Z,95143.69
2023-03-29T10:05:16.155Z,95147.59
2023-03-29T10:07:42.486Z,95144.00
2023-03-29T10:10:08.805Z,95145.13
2023-03-29T10:12:35.152Z,95154.47
2023-03-29T10:15:01.473Z,95146.03
2023-03-29T10:17:27.821Z,95142.97
2023-03-29T10:19:54.230Z,95144.84
2023-03-29T10:22:20.574Z,95142.03
2023-03-29T10:24:46.902Z,95138.91
2023-03-29T10:27:13.232Z,95142.03
2023-03-29T10:29:39.548Z,95139.47
2023-03-29T10:32:05.905Z,95140.50
2023-03-29T10:34:32.261Z,95146.66
2023-03-29T10:36:58.607Z,95151.38
2023-03-29T10:39:24.932Z,95137.84
2023-03-29T10:41:51.272Z,95134.38
2023-03-29T10:44:17.577Z,95131.41
2023-03-29T10:46:43.986Z,95127.00
2023-03-29T10:49:10.459Z,95127.78
2023-03-29T10:51:36.791Z,95118.28
2023-03-29T10:54:03.156Z,95112.69
2023-03-29T10:56:29.489Z,95122.94
2023-03-29T10:58:55.824Z,95121.66
2023-03-29T11:01:22.158Z,95125.13
2023-03-29T11:03:48.608Z,95117.22
2023-03-29T11:06:14.971Z,95112.38
2023-03-29T11:08:41.275Z,95123.09
2023-03-29T11:11:07.624Z,95110.28
2023-03-29T11:13:33.957Z,95107.41
2023-03-29T11:16:00.322Z,95107.03
2023-03-29T11:18:26.650Z,95109.69
2023-03-29T11:20:52.971Z,95108.06
2023-03-29T11:23:19.301Z,95124.72
2023-03-29T11:25:45.628Z,95125.88
2023-03-29T11:28:11.942Z,95108.59
2023-03-29T11:30:38.250Z,95117.53
2023-03-29T11:33:04.595Z,95111.88
2023-03-29T11:35:30.975Z,95116.84
2023-03-29T11:37:57.344Z,95103.00
2023-03-29T11:40:23.704Z,95095.56
2023-03-29T11:42:50.010Z,95094.88
2023-03-29T11:45:16.353Z,95101.50
2023-03-29T11:47:42.838Z,95103.78
2023-03-29T11:50:09.203Z,95115.84
2023-03-29T11:52:35.525Z,95099.31
2023-03-29T11:55:01.826Z,95092.63
2023-03-29T11:57:28.227Z,95101.81
2023-03-29T11:59:54.674Z,95106.50
2023-03-29T12:02:21.160Z,95111.41
2023-03-29T12:04:47.555Z,95099.34
2023-03-29T12:07:13.867Z,95100.59
2023-03-29T12:09:40.198Z,95101.22
2023-03-29T12:12:06.521Z,95100.00
2023-03-29T12:14:32.826Z,95104.91
2023-03-29T12:16:59.190Z,95098.94
2023-03-29T12:19:25.623Z,95096.75
2023-03-29T12:21:51.953Z,95095.66
2023-03-29T12:24:18.266Z,95092.25
2023-03-29T12:26:44.619Z,95092.84
2023-03-29T12:29:10.963Z,95079.69
2023-03-29T12:31:37.339Z,95095.19
2023-03-29T12:34:03.675Z,95089.09
2023-03-29T12:36:30.001Z,95092.56
2023-03-29T12:38:56.334Z,95085.78
2023-03-29T12:41:22.659Z,95088.81
2023-03-29T12:43:48.987Z,95079.22
2023-03-29T12:46:15.413Z,95077.44
2023-03-29T12:48:41.767Z,95086.00
2023-03-29T12:51:08.111Z,95087.25
2023-03-29T12:53:34.458Z,95079.28
2023-03-29T12:56:01.024Z,95077.88
2023-03-29T12:58:27.510Z,95080.94
2023-03-29T13:00:53.848Z,95075.09
2023-03-29T13:03:20.376Z,95072.41
2023-03-29T13:05:46.926Z,95079.34
2023-03-29T13:08:13.446Z,95070.59
2023-03-29T13:10:39.777Z,95068.56
2023-03-29T13:13:06.099Z,95065.09
2023-03-29T13:15:32.434Z,95061.19
2023-03-29T13:17:58.848Z,95060.97
2023-03-29T13:20:25.204Z,95056.28
2023-03-29T13:22:51.514Z,95058.13
2023-03-29T13:25:17.834Z,95057.31
2023-03-29T13:27:44.180Z,95050.53
2023-03-29T13:30:10.522Z,95047.44
2023-03-29T13:32:36.860Z,95040.03
2023-03-29T13:35:03.221Z,95046.97
2023-03-29T13:37:29.553Z,95040.78
2023-03-29T13:39:55.857Z,95036.88
2023-03-29T13:42:22.172Z,95032.78
2023-03-29T13:44:48.499Z,95036.34
2023-03-29T13:47:14.830Z,95032.44
2023-03-29T13:49:41.169Z,95038.56
2023-03-29T13:52:07.489Z,95035.88
2023-03-29T13:54:33.806Z,95026.63
2023-03-29T13:57:00.157Z,95027.00
2023-03-29T13:59:26.528Z,95026.91
2023-03-29T14:01:52.894Z,95020.06
2023-03-29T14:04:19.234Z,95008.53
2023-03-29T14:06:45.555Z,95015.63
2023-03-29T14:09:11.867Z,95013.28
2023-03-29T14:11:38.204Z,95014.03
2023-03-29T14:14:04.523Z,95016.94
2023-03-29T14:16:30.868Z,95012.66
2023-03-29T14:18:57.222Z,95012.41
2023-03-29T14:21:23.563Z,95008.72
2023-03-29T14:23:49.894Z,94995.09
2023-03-29T14:26:16.243Z,95002.00
2023-03-29T14:28:42.567Z,94994.88
2023-03-29T14:31:08.915Z,94997.19
2023-03-29T14:33:35.271Z,95005.13
2023-03-29T14:36:01.888Z,94998.88
2023-03-29T14:38:28.449Z,95000.94
2023-03-29T14:40:54.769Z,94994.13
2023-03-29T14:43:21.098Z,94990.28
2023-03-29T14:45:47.492Z,94988.66
2023-03-29T14:48:13.861Z,94986.22
2023-03-29T14:50:40.450Z,94985.09
2023-03-29T14:53:06.821Z,94983.75
2023-03-29T14:55:33.156Z,94984.91
2023-03-29T14:57:59.493Z,94981.03
2023-03-29T15:00:25.804Z,94980.69
2023-03-29T15:02:52.233Z,94974.84
2023-03-29T15:05:18.610Z,94980.22
2023-03-29T15:07:44.939Z,94982.53
2023-03-29T15:10:11.272Z,94979.88
2023-03-29T15:12:37.583Z,94975.38
2023-03-29T15:15:03.889Z,94972.94
2023-03-29T15:17:42.624Z,94980.97
2023-03-29T15:20:16.386Z,94972.38
2023-03-29T15:22:42.722Z,94974.44
2023-03-29T15:25:09.046Z,94971.31
2023-03-29T15:27:35.377Z,94962.19
2023-03-29T15:30:01.701Z,94961.19
2023-03-29T15:32:28.031Z,94965.03
2023-03-29T15:34:54.371Z,94961.06
2023-03-29T15:37:20.746Z,94951.97
2023-03-29T15:39:47.088Z,94947.66
2023-03-29T15:42:13.397Z,94944.22
2023-03-29T15:44:39.731Z,94941.09
2023-03-29T15:47:06.086Z,94936.81
2023-03-29T15:49:32.413Z,94942.88
2023-03-29T15:51:58.744Z,94942.13
2023-03-29T15:54:25.070Z,94932.06
2023-03-29T15:56:51.455Z,94931.16
2023-03-29T15:59:17.894Z,94927.84
2023-03-29T16:01:44.240Z,94925.25
2023-03-29T16:04:10.597Z,94915.41
2023-03-29T16:06:36.980Z,94913.97
2023-03-29T16:09:03.299Z,94934.94
2023-03-29T16:11:29.655Z,94926.16
2023-03-29T16:13:56.026Z,94926.97
2023-03-29T16:16:22.437Z,94926.16
2023-03-29T16:18:48.826Z,94921.28
2023-03-29T16:21:15.143Z,94929.09
2023-03-29T16:23:41.467Z,94929.78
2023-03-29T16:26:07.779Z,94920.94
2023-03-29T16:28:34.086Z,94920.19
2023-03-29T16:31:00.394Z,94920.63
2023-03-29T16:33:26.717Z,94925.78
2023-03-29T16:35:53.151Z,94921.28
2023-03-29T16:38:19.489Z,94916.59
2023-03-29T16:40:45.819Z,94906.97
2023-03-29T16:43:12.147Z,94904.06
2023-03-29T16:45:38.512Z,94901.66
2023-03-29T16:48:04.871Z,94892.03
2023-03-29T16:50:31.271Z,94890.81
2023-03-29T16:52:57.616Z,94897.41
2023-03-29T16:55:23.936Z,94892.72
2023-03-29T16:57:50.273Z,94890.72
2023-03-29T17:00:16.579Z,94897.06
2023-03-29T17:02:43.077Z,94901.19
2023-03-29T17:05:09.476Z,94908.31
2023-03-29T17:07:35.944Z,94919.44
2023-03-29T17:10:02.290Z,94918.41
2023-03-29T17:12:28.631Z,94913.78
2023-03-29T17:14:54.951Z,94917.50
2023-03-29T17:17:21.293Z,94919.38
2023-03-29T17:19:47.652Z,94911.25
2023-03-29T17:22:13.981Z,94901.69
2023-03-29T17:24:40.299Z,94892.34
2023-03-29T17:27:06.630Z,94898.28
2023-03-29T17:29:32.982Z,94905.66
2023-03-29T17:31:59.321Z,94890.34
2023-03-29T17:34:25.639Z,94889.78
2023-03-29T17:36:51.980Z,94883.22
2023-03-29T17:39:18.294Z,94890.81
2023-03-29T17:41:44.625Z,94899.13
2023-03-29T17:44:10.962Z,94909.56
2023-03-29T17:46:37.420Z,94908.59
2023-03-29T17:49:03.788Z,94892.22
2023-03-29T17:51:30.095Z,94882.22
2023-03-29T17:53:56.418Z,94882.44
2023-03-29T17:56:22.786Z,94885.69
2023-03-29T17:58:49.113Z,94890.03
2023-03-29T18:01:15.471Z,94889.22
2023-03-29T18:03:41.837Z,94892.06
2023-03-29T18:06:08.152Z,94887.56
2023-03-29T18:08:34.474Z,94900.44
2023-03-29T18:11:00.825Z,94895.31
2023-03-29T18:13:27.152Z,94892.88
2023-03-29T18:15:53.477Z,94888.16
2023-03-29T18:18:19.787Z,94881.06
2023-03-29T18:20:46.124Z,94882.25
2023-03-29T18:23:12.467Z,94883.06
2023-03-29T18:25:39.040Z,94885.72
2023-03-29T18:28:05.373Z,94899.19
2023-03-29T18:30:31.690Z,94903.06
2023-03-29T18:32:58.051Z,94903.06
2023-03-29T18:35:24.410Z,94921.81
2023-03-29T18:37:50.730Z,94916.75
2023-03-29T18:40:17.041Z,94912.63
2023-03-29T18:42:43.354Z,94909.19
2023-03-29T18:45:09.672Z,94909.97
2023-03-29T18:47:36.079Z,94914.41
2023-03-29T18:50:02.474Z,94919.88
2023-03-29T18:52:28.821Z,94917.22
2023-03-29T18:54:55.158Z,94911.47
2023-03-29T18:57:21.548Z,94919.44
2023-03-29T18:59:47.894Z,94914.38
2023-03-29T19:02:14.232Z,94917.22
2023-03-29T19:04:40.561Z,94924.75
2023-03-29T19:07:06.895Z,94917.97
2023-03-29T19:09:33.221Z,94921.66
2023-03-29T19:11:59.555Z,94925.25
2023-03-29T19:14:25.882Z,94922.41
2023-03-29T19:16:52.205Z,94927.50
2023-03-29T19:19:18.510Z,94926.03
2023-03-29T19:21:44.844Z,94929.28
2023-03-29T19:24:11.173Z,94935.03
2023-03-29T19:26:37.502Z,94943.81
2023-03-29T19:29:03.833Z,94936.69
2023-03-29T19:31:30.299Z,94938.31
2023-03-29T19:33:56.696Z,94937.28
2023-03-29T19:36:23.037Z,94945.19
2023-03-29T19:38:49.346Z,94948.84
2023-03-29T19:41:15.674Z,94950.44
2023-03-29T19:43:41.986Z,94950.63
2023-03-29T19:46:08.437Z,94951.19
2023-03-29T19:48:34.882Z,94950.34
2023-03-29T19:51:01.252Z,94939.75
2023-03-29T19:53:27.566Z,94941.22
2023-03-29T19:55:53.890Z,94947.31
2023-03-29T19:58:20.227Z,94939.09
2023-03-29T20:00:46.547Z,94934.34
2023-03-29T20:03:12.922Z,94930.44
2023-03-29T20:05:39.266Z,94939.53
2023-03-29T20:08:05.578Z,94932.59
2023-03-29T20:10:31.901Z,94927.72
2023-03-29T20:12:58.225Z,94925.75
2023-03-29T20:15:24.558Z,94921.31
2023-03-29T20:17:50.911Z,94922.91
2023-03-29T20:20:17.249Z,94924.22
2023-03-29T20:22:43.564Z,94925.00
2023-03-29T20:25:09.953Z,94923.72
2023-03-29T20:27:36.292Z,94927.16
2023-03-29T20:30:02.617Z,94923.84
2023-03-29T20:32:28.947Z,94920.31
2023-03-29T20:34:55.307Z,94915.19
2023-03-29T20:37:21.622Z,94912.94
2023-03-29T20:39:47.969Z,94917.00
2023-03-29T20:42:14.307Z,94914.75
2023-03-29T20:44:40.638Z,94917.22
2023-03-29T20:47:06.961Z,94914.63
2023-03-29T20:49:33.295Z,94904.91
2023-03-29T20:51:59.630Z,94911.44
2023-03-29T20:54:25.937Z,94916.06
2023-03-29T20:56:52.301Z,94913.25
2023-03-29T20:59:18.632Z,94923.63
2023-03-29T21:01:45.022Z,94928.34
2023-03-29T21:04:11.404Z,94928.34
2023-03-29T21:06:37.702Z,94926.97
2023-03-29T21:09:04.024Z,94926.34
2023-03-29T21:11:30.359Z,94917.75
2023-03-29T21:13:56.696Z,94897.41
2023-03-29T21:16:23.145Z,94898.91
2023-03-29T21:18:49.551Z,94896.06
2023-03-29T21:21:15.879Z,94900.34
2023-03-29T21:23:42.195Z,94887.34
2023-03-29T21:26:08.521Z,94883.72
2023-03-29T21:28:34.855Z,94876.59
2023-03-29T21:31:01.396Z,94875.94
2023-03-29T21:33:27.883Z,94882.44
2023-03-29T21:35:54.228Z,94876.34
2023-03-29T21:38:20.594Z,94868.81
2023-03-29T21:40:46.922Z,94863.16
2023-03-29T21:43:13.231Z,94865.00
2023-03-29T21:45:39.533Z,94855.22
2023-03-29T21:48:05.879Z,94855.66
2023-03-29T21:50:33.797Z,94850.81
2023-03-29T21:53:00.343Z,94855.31
2023-03-29T21:55:26.650Z,94860.03
2023-03-29T21:57:52.965Z,94859.63
2023-03-29T22:00:19.293Z,94857.78
2023-03-29T22:02:45.758Z,94849.28
2023-03-29T22:05:12.248Z,94860.63
2023-03-29T22:07:38.664Z,94862.00
2023-03-29T22:10:05.082Z,94860.91
2023-03-29T22:12:31.554Z,94867.97
2023-03-29T22:14:57.888Z,94863.59
2023-03-29T22:17:24.241Z,94862.53
2023-03-29T22:19:50.605Z,94862.09
2023-03-29T22:22:16.917Z,94854.16
2023-03-29T22:24:43.252Z,94856.31
2023-03-29T22:27:09.555Z,94857.84
2023-03-29T22:29:35.858Z,94860.88
2023-03-29T22:32:02.237Z,94854.56
2023-03-29T22:34:28.641Z,94865.13
2023-03-29T22:36:54.960Z,94866.47
2023-03-29T22:39:21.299Z,94872.56
2023-03-29T22:41:47.610Z,94858.28
2023-03-29T22:44:13.935Z,94854.81
2023-03-29T22:46:40.248Z,94858.28
2023-03-29T22:49:06.574Z,94833.41
2023-03-29T22:51:32.905Z,94819.75
2023-03-29T22:53:59.249Z,94816.31
2023-03-29T22:56:25.686Z,94819.72
2023-03-29T22:58:52.025Z,94803.44
2023-03-29T23:01:18.352Z,94789.41
2023-03-29T23:03:44.678Z,94795.34
2023-03-29T23:06:10.990Z,94785.59
2023-03-29T23:08:37.297Z,94782.13
2023-03-29T23:11:03.731Z,94764.22
2023-03-29T23:13:30.228Z,94761.44
2023-03-29T23:15:56.589Z,94751.22
2023-03-29T23:18:22.962Z,94753.34
2023-03-29T23:20:49.269Z,94756.66
2023-03-29T23:23:15.577Z,94761.25
2023-03-29T23:25:41.896Z,94761.88
2023-03-29T23:28:08.224Z,94754.84
2023-03-29T23:30:34.587Z,94763.34
2023-03-29T23:33:00.956Z,94756.38
2023-03-29T23:35:27.387Z,94757.25
2023-03-29T23:37:53.742Z,94769.78
2023-03-29T23:40:20.074Z,94776.94
2023-03-29T23:42:46.399Z,94778.78
2023-03-29T23:45:12.743Z,94788.09
2023-03-29T23:47:39.087Z,94777.72
2023-03-29T23:50:05.448Z,94781.16
2023-03-29T23:52:31.760Z,94765.03
2023-03-29T23:54:58.092Z,94771.53
2023-03-29T23:57:24.461Z,94755.63
2023-03-29T23:59:50.806Z,94749.88
